sensor_id;sensor_type;location;lat;lon;timestamp;temperature;humidity
34279;DHT22;20538;51.528;9.942;2023-07-22T00:02:23;13.20;99.90
34279;DHT22;20538;51.528;9.942;2023-07-22T00:04:49;13.20;99.90
34279;DHT22;20538;51.528;9.942;2023-07-22T00:07:16;13.20;99.90
34279;DHT22;20538;51.528;9.942;2023-07-22T00:09:42;13.20;99.90
34279;DHT22;20538;51.528;9.942;2023-07-22T00:12:08;13.10;99.90
34279;DHT22;20538;51.528;9.942;2023-07-22T00:14:38;13.00;99.90
34279;DHT22;20538;51.528;9.942;2023-07-22T00:17:04;13.00;99.90
34279;DHT22;20538;51.528;9.942;2023-07-22T00:19:30;13.00;99.90
34279;DHT22;20538;51.528;9.942;2023-07-22T00:21:55;13.00;99.90
34279;DHT22;20538;51.528;9.942;2023-07-22T00:24:21;13.00;99.90
34279;DHT22;20538;51.528;9.942;2023-07-22T00:26:48;12.90;99.90
34279;DHT22;20538;51.528;9.942;2023-07-22T00:29:15;12.90;99.90
34279;DHT22;20538;51.528;9.942;2023-07-22T00:31:41;12.90;99.90
34279;DHT22;20538;51.528;9.942;2023-07-22T00:34:07;12.80;99.90
34279;DHT22;20538;51.528;9.942;2023-07-22T00:36:32;12.80;99.90
34279;DHT22;20538;51.528;9.942;2023-07-22T00:38:58;12.80;99.90
34279;DHT22;20538;51.528;9.942;2023-07-22T00:41:23;12.70;99.90
34279;DHT22;20538;51.528;9.942;2023-07-22T00:43:49;12.70;99.90
34279;DHT22;20538;51.528;9.942;2023-07-22T00:46:15;12.70;99.90
34279;DHT22;20538;51.528;9.942;2023-07-22T00:48:41;12.60;99.90
34279;DHT22;20538;51.528;9.942;2023-07-22T00:51:07;12.60;99.90
34279;DHT22;20538;51.528;9.942;2023-07-22T00:53:32;12.50;99.90
34279;DHT22;20538;51.528;9.942;2023-07-22T00:55:58;12.40;99.90
34279;DHT22;20538;51.528;9.942;2023-07-22T00:58:24;12.40;99.90
34279;DHT22;20538;51.528;9.942;2023-07-22T01:00:49;12.30;99.90
34279;DHT22;20538;51.528;9.942;2023-07-22T01:03:15;12.30;99.90
34279;DHT22;20538;51.528;9.942;2023-07-22T01:05:41;12.20;99.90
34279;DHT22;20538;51.528;9.942;2023-07-22T01:08:07;12.20;99.90
34279;DHT22;20538;51.528;9.942;2023-07-22T01:10:33;12.20;99.90
34279;DHT22;20538;51.528;9.942;2023-07-22T01:12:58;12.20;99.90
34279;DHT22;20538;51.528;9.942;2023-07-22T01:15:25;12.10;99.90
34279;DHT22;20538;51.528;9.942;2023-07-22T01:17:51;12.10;99.90
34279;DHT22;20538;51.528;9.942;2023-07-22T01:20:18;12.10;99.90
34279;DHT22;20538;51.528;9.942;2023-07-22T01:22:52;12.10;99.90
34279;DHT22;20538;51.528;9.942;2023-07-22T01:25:22;12.00;99.90
34279;DHT22;20538;51.528;9.942;2023-07-22T01:27:50;12.00;99.90
34279;DHT22;20538;51.528;9.942;2023-07-22T01:30:15;12.00;99.90
34279;DHT22;20538;51.528;9.942;2023-07-22T01:32:41;11.90;99.90
34279;DHT22;20538;51.528;9.942;2023-07-22T01:35:07;11.80;99.90
34279;DHT22;20538;51.528;9.942;2023-07-22T01:37:34;11.70;99.90
34279;DHT22;20538;51.528;9.942;2023-07-22T01:40:00;11.70;99.90
34279;DHT22;20538;51.528;9.942;2023-07-22T01:42:25;11.70;99.90
34279;DHT22;20538;51.528;9.942;2023-07-22T01:44:52;11.70;99.90
34279;DHT22;20538;51.528;9.942;2023-07-22T01:47:17;11.70;99.90
34279;DHT22;20538;51.528;9.942;2023-07-22T01:49:44;11.60;99.90
34279;DHT22;20538;51.528;9.942;2023-07-22T01:52:10;11.60;99.90
34279;DHT22;20538;51.528;9.942;2023-07-22T01:54:36;11.60;99.90
34279;DHT22;20538;51.528;9.942;2023-07-22T01:57:01;11.60;99.90
34279;DHT22;20538;51.528;9.942;2023-07-22T01:59:27;11.60;99.90
34279;DHT22;20538;51.528;9.942;2023-07-22T02:01:53;11.60;99.90
34279;DHT22;20538;51.528;9.942;2023-07-22T02:04:18;11.50;99.90
34279;DHT22;20538;51.528;9.942;2023-07-22T02:06:44;11.60;99.90
34279;DHT22;20538;51.528;9.942;2023-07-22T02:09:10;11.60;99.90
34279;DHT22;20538;51.528;9.942;2023-07-22T02:11:38;11.60;99.90
34279;DHT22;20538;51.528;9.942;2023-07-22T02:14:04;11.60;99.90
34279;DHT22;20538;51.528;9.942;2023-07-22T02:16:36;11.60;99.90
34279;DHT22;20538;51.528;9.942;2023-07-22T02:19:04;11.60;99.90
34279;DHT22;20538;51.528;9.942;2023-07-22T02:21:30;11.60;99.90
34279;DHT22;20538;51.528;9.942;2023-07-22T02:23:55;11.50;99.90
34279;DHT22;20538;51.528;9.942;2023-07-22T02:26:21;11.60;99.90
34279;DHT22;20538;51.528;9.942;2023-07-22T02:28:47;11.60;99.90
34279;DHT22;20538;51.528;9.942;2023-07-22T02:31:13;11.60;99.90
34279;DHT22;20538;51.528;9.942;2023-07-22T02:33:39;11.50;99.90
34279;DHT22;20538;51.528;9.942;2023-07-22T02:36:04;11.50;99.90
34279;DHT22;20538;51.528;9.942;2023-07-22T02:38:30;11.40;99.90
34279;DHT22;20538;51.528;9.942;2023-07-22T02:41:02;11.40;99.90
34279;DHT22;20538;51.528;9.942;2023-07-22T02:43:28;11.40;99.90
34279;DHT22;20538;51.528;9.942;2023-07-22T02:45:54;11.50;99.90
34279;DHT22;20538;51.528;9.942;2023-07-22T02:48:20;11.40;99.90
34279;DHT22;20538;51.528;9.942;2023-07-22T02:50:45;11.30;99.90
34279;DHT22;20538;51.528;9.942;2023-07-22T02:53:11;11.30;99.90
34279;DHT22;20538;51.528;9.942;2023-07-22T02:55:37;11.40;99.90
34279;DHT22;20538;51.528;9.942;2023-07-22T02:58:02;11.30;99.90
34279;DHT22;20538;51.528;9.942;2023-07-22T03:00:28;11.20;99.90
34279;DHT22;20538;51.528;9.942;2023-07-22T03:02:55;11.30;99.90
34279;DHT22;20538;51.528;9.942;2023-07-22T03:05:26;11.30;99.90
34279;DHT22;20538;51.528;9.942;2023-07-22T03:07:53;11.30;99.90
34279;DHT22;20538;51.528;9.942;2023-07-22T03:10:21;11.30;99.90
34279;DHT22;20538;51.528;9.942;2023-07-22T03:12:47;11.20;99.90
34279;DHT22;20538;51.528;9.942;2023-07-22T03:15:13;11.10;99.90
34279;DHT22;20538;51.528;9.942;2023-07-22T03:17:39;11.10;99.90
34279;DHT22;20538;51.528;9.942;2023-07-22T03:20:07;11.10;99.90
34279;DHT22;20538;51.528;9.942;2023-07-22T03:22:36;11.10;99.90
34279;DHT22;20538;51.528;9.942;2023-07-22T03:25:01;11.10;99.90
34279;DHT22;20538;51.528;9.942;2023-07-22T03:27:27;11.10;99.90
34279;DHT22;20538;51.528;9.942;2023-07-22T03:29:53;11.10;99.90
34279;DHT22;20538;51.528;9.942;2023-07-22T03:32:19;11.20;99.90
34279;DHT22;20538;51.528;9.942;2023-07-22T03:34:44;11.20;99.90
34279;DHT22;20538;51.528;9.942;2023-07-22T03:37:10;11.10;99.90
34279;DHT22;20538;51.528;9.942;2023-07-22T03:39:35;11.10;99.90
34279;DHT22;20538;51.528;9.942;2023-07-22T03:42:01;11.10;99.90
34279;DHT22;20538;51.528;9.942;2023-07-22T03:44:27;11.00;99.90
34279;DHT22;20538;51.528;9.942;2023-07-22T03:46:54;11.10;99.90
34279;DHT22;20538;51.528;9.942;2023-07-22T03:49:19;11.10;99.90
34279;DHT22;20538;51.528;9.942;2023-07-22T03:51:46;11.20;99.90
34279;DHT22;20538;51.528;9.942;2023-07-22T03:54:11;11.20;99.90
34279;DHT22;20538;51.528;9.942;2023-07-22T03:56:39;11.20;99.90
34279;DHT22;20538;51.528;9.942;2023-07-22T03:59:05;11.20;99.90
34279;DHT22;20538;51.528;9.942;2023-07-22T04:01:31;11.20;99.90
34279;DHT22;20538;51.528;9.942;2023-07-22T04:03:56;11.30;99.90
34279;DHT22;20538;51.528;9.942;2023-07-22T04:06:22;11.40;99.90
34279;DHT22;20538;51.528;9.942;2023-07-22T04:08:48;11.40;99.90
34279;DHT22;20538;51.528;9.942;2023-07-22T04:11:14;11.50;99.90
34279;DHT22;20538;51.528;9.942;2023-07-22T04:13:40;11.50;99.90
34279;DHT22;20538;51.528;9.942;2023-07-22T04:16:05;11.50;99.90
34279;DHT22;20538;51.528;9.942;2023-07-22T04:18:31;11.60;99.90
34279;DHT22;20538;51.528;9.942;2023-07-22T04:21:00;11.60;99.90
34279;DHT22;20538;51.528;9.942;2023-07-22T04:23:26;11.70;99.90
34279;DHT22;20538;51.528;9.942;2023-07-22T04:25:52;11.80;99.90
34279;DHT22;20538;51.528;9.942;2023-07-22T04:28:18;11.80;99.90
34279;DHT22;20538;51.528;9.942;2023-07-22T04:30:55;11.90;99.90
34279;DHT22;20538;51.528;9.942;2023-07-22T04:33:21;12.00;99.90
34279;DHT22;20538;51.528;9.942;2023-07-22T04:35:46;12.20;99.90
34279;DHT22;20538;51.528;9.942;2023-07-22T04:38:12;12.30;99.90
34279;DHT22;20538;51.528;9.942;2023-07-22T04:40:40;12.40;99.90
34279;DHT22;20538;51.528;9.942;2023-07-22T04:43:07;12.50;99.90
34279;DHT22;20538;51.528;9.942;2023-07-22T04:45:33;13.50;99.90
34279;DHT22;20538;51.528;9.942;2023-07-22T04:47:59;14.40;99.90
34279;DHT22;20538;51.528;9.942;2023-07-22T04:50:25;15.20;99.90
34279;DHT22;20538;51.528;9.942;2023-07-22T04:52:50;15.50;99.90
34279;DHT22;20538;51.528;9.942;2023-07-22T04:55:17;15.70;99.90
34279;DHT22;20538;51.528;9.942;2023-07-22T04:57:42;15.00;99.90
34279;DHT22;20538;51.528;9.942;2023-07-22T05:00:11;14.50;99.90
34279;DHT22;20538;51.528;9.942;2023-07-22T05:02:42;14.30;99.90
34279;DHT22;20538;51.528;9.942;2023-07-22T05:05:12;14.00;99.90
34279;DHT22;20538;51.528;9.942;2023-07-22T05:07:38;13.90;99.90
34279;DHT22;20538;51.528;9.942;2023-07-22T05:10:04;14.10;99.90
34279;DHT22;20538;51.528;9.942;2023-07-22T05:12:30;14.70;99.90
34279;DHT22;20538;51.528;9.942;2023-07-22T05:14:55;14.40;99.90
34279;DHT22;20538;51.528;9.942;2023-07-22T05:17:21;14.20;99.90
34279;DHT22;20538;51.528;9.942;2023-07-22T05:19:46;14.10;99.90
34279;DHT22;20538;51.528;9.942;2023-07-22T05:22:14;13.90;99.90
34279;DHT22;20538;51.528;9.942;2023-07-22T05:24:40;13.80;99.90
34279;DHT22;20538;51.528;9.942;2023-07-22T05:27:05;13.80;99.90
34279;DHT22;20538;51.528;9.942;2023-07-22T05:29:31;13.70;99.90
34279;DHT22;20538;51.528;9.942;2023-07-22T05:31:57;13.70;99.90
34279;DHT22;20538;51.528;9.942;2023-07-22T05:34:22;13.70;99.90
34279;DHT22;20538;51.528;9.942;2023-07-22T05:36:48;14.20;99.90
34279;DHT22;20538;51.528;9.942;2023-07-22T05:39:13;15.40;99.90
34279;DHT22;20538;51.528;9.942;2023-07-22T05:41:42;16.60;99.90
34279;DHT22;20538;51.528;9.942;2023-07-22T05:44:08;16.90;99.90
34279;DHT22;20538;51.528;9.942;2023-07-22T05:46:34;17.20;99.90
34279;DHT22;20538;51.528;9.942;2023-07-22T05:48:59;17.50;99.90
34279;DHT22;20538;51.528;9.942;2023-07-22T05:51:25;17.70;99.90
34279;DHT22;20538;51.528;9.942;2023-07-22T05:53:51;18.20;99.90
34279;DHT22;20538;51.528;9.942;2023-07-22T05:56:16;18.50;99.90
34279;DHT22;20538;51.528;9.942;2023-07-22T05:58:42;18.50;99.90
34279;DHT22;20538;51.528;9.942;2023-07-22T06:01:08;18.80;99.90
34279;DHT22;20538;51.528;9.942;2023-07-22T06:03:34;19.20;99.90
34279;DHT22;20538;51.528;9.942;2023-07-22T06:06:00;19.00;99.90
34279;DHT22;20538;51.528;9.942;2023-07-22T06:08:25;19.20;99.90
34279;DHT22;20538;51.528;9.942;2023-07-22T06:10:51;19.10;99.90
34279;DHT22;20538;51.528;9.942;2023-07-22T06:13:20;18.90;99.90
34279;DHT22;20538;51.528;9.942;2023-07-22T06:15:45;19.00;99.90
34279;DHT22;20538;51.528;9.942;2023-07-22T06:18:11;18.70;99.90
34279;DHT22;20538;51.528;9.942;2023-07-22T06:20:37;18.20;99.90
34279;DHT22;20538;51.528;9.942;2023-07-22T06:23:04;17.60;99.90
34279;DHT22;20538;51.528;9.942;2023-07-22T06:25:29;17.10;99.90
34279;DHT22;20538;51.528;9.942;2023-07-22T06:27:55;16.70;99.90
34279;DHT22;20538;51.528;9.942;2023-07-22T06:30:21;16.50;99.90
34279;DHT22;20538;51.528;9.942;2023-07-22T06:32:46;16.60;99.90
34279;DHT22;20538;51.528;9.942;2023-07-22T06:35:12;16.90;99.90
34279;DHT22;20538;51.528;9.942;2023-07-22T06:37:38;17.10;99.90
34279;DHT22;20538;51.528;9.942;2023-07-22T06:40:05;17.00;99.90
34279;DHT22;20538;51.528;9.942;2023-07-22T06:42:30;17.20;99.90
34279;DHT22;20538;51.528;9.942;2023-07-22T06:44:56;17.50;99.90
34279;DHT22;20538;51.528;9.942;2023-07-22T06:47:22;17.50;99.90
34279;DHT22;20538;51.528;9.942;2023-07-22T06:49:47;17.90;99.90
34279;DHT22;20538;51.528;9.942;2023-07-22T06:52:13;17.80;99.90
34279;DHT22;20538;51.528;9.942;2023-07-22T06:54:38;17.90;99.90
34279;DHT22;20538;51.528;9.942;2023-07-22T06:57:04;17.70;99.90
34279;DHT22;20538;51.528;9.942;2023-07-22T06:59:31;17.60;99.90
34279;DHT22;20538;51.528;9.942;2023-07-22T07:01:58;17.40;99.90
34279;DHT22;20538;51.528;9.942;2023-07-22T07:04:23;17.20;99.90
34279;DHT22;20538;51.528;9.942;2023-07-22T07:06:52;17.20;99.90
34279;DHT22;20538;51.528;9.942;2023-07-22T07:09:17;17.20;99.90
34279;DHT22;20538;51.528;9.942;2023-07-22T07:11:44;17.30;99.90
34279;DHT22;20538;51.528;9.942;2023-07-22T07:14:09;17.10;99.90
34279;DHT22;20538;51.528;9.942;2023-07-22T07:16:35;17.10;99.90
34279;DHT22;20538;51.528;9.942;2023-07-22T07:19:01;17.10;99.90
34279;DHT22;20538;51.528;9.942;2023-07-22T07:21:27;17.00;99.90
34279;DHT22;20538;51.528;9.942;2023-07-22T07:23:53;16.90;99.90
34279;DHT22;20538;51.528;9.942;2023-07-22T07:26:19;16.90;99.90
34279;DHT22;20538;51.528;9.942;2023-07-22T07:28:48;16.90;99.90
34279;DHT22;20538;51.528;9.942;2023-07-22T07:31:16;16.80;99.90
34279;DHT22;20538;51.528;9.942;2023-07-22T07:33:42;16.90;99.90
34279;DHT22;20538;51.528;9.942;2023-07-22T07:36:07;17.00;99.90
34279;DHT22;20538;51.528;9.942;2023-07-22T07:38:33;17.00;99.90
34279;DHT22;20538;51.528;9.942;2023-07-22T07:41:01;17.10;99.90
34279;DHT22;20538;51.528;9.942;2023-07-22T07:43:26;17.10;99.90
34279;DHT22;20538;51.528;9.942;2023-07-22T07:46:19;17.00;99.90
34279;DHT22;20538;51.528;9.942;2023-07-22T07:48:55;17.10;99.90
34279;DHT22;20538;51.528;9.942;2023-07-22T07:51:22;17.00;99.90
34279;DHT22;20538;51.528;9.942;2023-07-22T07:53:48;17.20;99.90
34279;DHT22;20538;51.528;9.942;2023-07-22T07:56:15;17.20;99.90
34279;DHT22;20538;51.528;9.942;2023-07-22T07:58:41;17.30;99.90
34279;DHT22;20538;51.528;9.942;2023-07-22T08:01:07;17.40;99.90
34279;DHT22;20538;51.528;9.942;2023-07-22T08:03:33;17.50;99.90
34279;DHT22;20538;51.528;9.942;2023-07-22T08:06:00;17.60;99.90
34279;DHT22;20538;51.528;9.942;2023-07-22T08:08:26;17.50;99.90
34279;DHT22;20538;51.528;9.942;2023-07-22T08:11:04;17.70;99.90
34279;DHT22;20538;51.528;9.942;2023-07-22T08:13:30;18.00;99.90
34279;DHT22;20538;51.528;9.942;2023-07-22T08:16:14;18.10;99.90
34279;DHT22;20538;51.528;9.942;2023-07-22T08:18:40;18.40;99.90
34279;DHT22;20538;51.528;9.942;2023-07-22T08:21:06;18.40;99.90
34279;DHT22;20538;51.528;9.942;2023-07-22T08:23:33;18.20;99.90
34279;DHT22;20538;51.528;9.942;2023-07-22T08:25:59;18.20;99.90
34279;DHT22;20538;51.528;9.942;2023-07-22T08:28:25;18.30;99.90
34279;DHT22;20538;51.528;9.942;2023-07-22T08:30:54;18.10;99.90
34279;DHT22;20538;51.528;9.942;2023-07-22T08:33:25;18.10;99.90
34279;DHT22;20538;51.528;9.942;2023-07-22T08:35:53;17.80;99.90
34279;DHT22;20538;51.528;9.942;2023-07-22T08:38:19;17.80;99.90
34279;DHT22;20538;51.528;9.942;2023-07-22T08:40:49;18.10;99.90
34279;DHT22;20538;51.528;9.942;2023-07-22T08:43:16;18.10;99.90
34279;DHT22;20538;51.528;9.942;2023-07-22T08:45:44;17.90;99.90
34279;DHT22;20538;51.528;9.942;2023-07-22T08:48:12;18.00;99.90
34279;DHT22;20538;51.528;9.942;2023-07-22T08:51:00;18.00;99.90
34279;DHT22;20538;51.528;9.942;2023-07-22T08:53:28;17.90;99.90
34279;DHT22;20538;51.528;9.942;2023-07-22T08:55:54;17.80;99.90
34279;DHT22;20538;51.528;9.942;2023-07-22T08:58:21;17.60;99.90
34279;DHT22;20538;51.528;9.942;2023-07-22T09:00:48;17.50;99.90
34279;DHT22;20538;51.528;9.942;2023-07-22T09:03:14;17.60;99.90
34279;DHT22;20538;51.528;9.942;2023-07-22T09:05:40;17.80;99.90
34279;DHT22;20538;51.528;9.942;2023-07-22T09:08:07;17.80;99.90
34279;DHT22;20538;51.528;9.942;2023-07-22T09:10:34;17.80;99.90
34279;DHT22;20538;51.528;9.942;2023-07-22T09:13:00;18.10;99.90
34279;DHT22;20538;51.528;9.942;2023-07-22T09:15:26;18.60;99.90
34279;DHT22;20538;51.528;9.942;2023-07-22T09:17:52;18.90;99.90
34279;DHT22;20538;51.528;9.942;2023-07-22T09:20:19;19.40;99.90
34279;DHT22;20538;51.528;9.942;2023-07-22T09:22:51;19.70;99.90
34279;DHT22;20538;51.528;9.942;2023-07-22T09:25:25;19.80;99.90
34279;DHT22;20538;51.528;9.942;2023-07-22T09:27:53;19.80;99.90
34279;DHT22;20538;51.528;9.942;2023-07-22T09:30:38;20.00;99.90
34279;DHT22;20538;51.528;9.942;2023-07-22T09:33:06;19.90;99.90
34279;DHT22;20538;51.528;9.942;2023-07-22T09:35:44;19.80;99.90
34279;DHT22;20538;51.528;9.942;2023-07-22T09:38:10;19.80;99.90
34279;DHT22;20538;51.528;9.942;2023-07-22T09:40:40;19.50;99.90
34279;DHT22;20538;51.528;9.942;2023-07-22T09:43:09;19.60;99.90
34279;DHT22;20538;51.528;9.942;2023-07-22T09:45:35;19.90;99.90
34279;DHT22;20538;51.528;9.942;2023-07-22T09:48:05;20.10;99.90
34279;DHT22;20538;51.528;9.942;2023-07-22T09:50:36;20.40;99.90
34279;DHT22;20538;51.528;9.942;2023-07-22T09:53:02;20.50;98.60
34279;DHT22;20538;51.528;9.942;2023-07-22T09:55:30;20.50;97.90
34279;DHT22;20538;51.528;9.942;2023-07-22T09:58:03;20.50;98.10
34279;DHT22;20538;51.528;9.942;2023-07-22T10:00:34;20.30;99.00
34279;DHT22;20538;51.528;9.942;2023-07-22T10:03:02;20.30;97.70
34279;DHT22;20538;51.528;9.942;2023-07-22T10:05:35;20.30;98.80
34279;DHT22;20538;51.528;9.942;2023-07-22T10:08:05;20.20;97.40
34279;DHT22;20538;51.528;9.942;2023-07-22T10:10:35;19.90;99.30
34279;DHT22;20538;51.528;9.942;2023-07-22T10:13:03;19.80;98.50
34279;DHT22;20538;51.528;9.942;2023-07-22T10:15:33;19.60;99.90
34279;DHT22;20538;51.528;9.942;2023-07-22T10:18:01;19.50;98.20
34279;DHT22;20538;51.528;9.942;2023-07-22T10:20:28;19.50;97.70
34279;DHT22;20538;51.528;9.942;2023-07-22T10:22:55;19.70;97.40
34279;DHT22;20538;51.528;9.942;2023-07-22T10:25:22;19.80;97.20
34279;DHT22;20538;51.528;9.942;2023-07-22T10:27:49;19.90;96.40
34279;DHT22;20538;51.528;9.942;2023-07-22T10:30:16;20.10;95.80
34279;DHT22;20538;51.528;9.942;2023-07-22T10:32:51;20.40;97.30
34279;DHT22;20538;51.528;9.942;2023-07-22T10:38:14;20.50;97.60
34279;DHT22;20538;51.528;9.942;2023-07-22T10:40:50;20.40;96.90
34279;DHT22;20538;51.528;9.942;2023-07-22T10:43:17;20.30;96.20
34279;DHT22;20538;51.528;9.942;2023-07-22T10:45:49;20.40;96.80
34279;DHT22;20538;51.528;9.942;2023-07-22T10:48:15;20.40;96.80
34279;DHT22;20538;51.528;9.942;2023-07-22T10:50:46;20.40;95.90
34279;DHT22;20538;51.528;9.942;2023-07-22T10:53:28;20.20;97.50
34279;DHT22;20538;51.528;9.942;2023-07-22T10:56:12;20.20;96.60
34279;DHT22;20538;51.528;9.942;2023-07-22T11:11:55;20.90;95.00
34279;DHT22;20538;51.528;9.942;2023-07-22T11:14:50;21.30;95.10
34279;DHT22;20538;51.528;9.942;2023-07-22T11:17:17;21.40;94.90
34279;DHT22;20538;51.528;9.942;2023-07-22T11:19:43;21.20;94.30
34279;DHT22;20538;51.528;9.942;2023-07-22T11:22:09;21.30;94.30
34279;DHT22;20538;51.528;9.942;2023-07-22T11:24:36;20.80;93.60
34279;DHT22;20538;51.528;9.942;2023-07-22T11:27:07;20.30;93.50
34279;DHT22;20538;51.528;9.942;2023-07-22T11:29:34;20.20;93.90
34279;DHT22;20538;51.528;9.942;2023-07-22T11:32:01;19.90;94.10
34279;DHT22;20538;51.528;9.942;2023-07-22T11:34:27;20.00;94.60
34279;DHT22;20538;51.528;9.942;2023-07-22T11:36:53;20.00;93.60
34279;DHT22;20538;51.528;9.942;2023-07-22T11:39:20;20.20;94.10
34279;DHT22;20538;51.528;9.942;2023-07-22T11:41:48;20.30;92.80
34279;DHT22;20538;51.528;9.942;2023-07-22T11:44:17;20.60;93.00
34279;DHT22;20538;51.528;9.942;2023-07-22T11:49:27;20.90;93.10
34279;DHT22;20538;51.528;9.942;2023-07-22T11:52:08;21.10;92.10
34279;DHT22;20538;51.528;9.942;2023-07-22T11:54:40;21.10;93.20
34279;DHT22;20538;51.528;9.942;2023-07-22T11:59:49;21.20;90.90
34279;DHT22;20538;51.528;9.942;2023-07-22T12:02:27;21.10;91.30
34279;DHT22;20538;51.528;9.942;2023-07-22T12:05:02;21.30;91.20
34279;DHT22;20538;51.528;9.942;2023-07-22T12:07:36;21.40;91.30
34279;DHT22;20538;51.528;9.942;2023-07-22T12:10:04;21.80;91.50
34279;DHT22;20538;51.528;9.942;2023-07-22T12:15:10;21.90;88.60
34279;DHT22;20538;51.528;9.942;2023-07-22T12:18:07;22.20;90.90
34279;DHT22;20538;51.528;9.942;2023-07-22T12:20:34;22.50;90.90
34279;DHT22;20538;51.528;9.942;2023-07-22T12:23:03;22.60;87.20
34279;DHT22;20538;51.528;9.942;2023-07-22T12:25:28;22.80;90.90
34279;DHT22;20538;51.528;9.942;2023-07-22T12:27:54;22.90;87.60
34279;DHT22;20538;51.528;9.942;2023-07-22T12:30:20;22.70;89.10
34279;DHT22;20538;51.528;9.942;2023-07-22T12:32:47;22.70;88.20
34279;DHT22;20538;51.528;9.942;2023-07-22T12:35:13;21.80;85.30
34279;DHT22;20538;51.528;9.942;2023-07-22T12:37:39;21.70;85.30
34279;DHT22;20538;51.528;9.942;2023-07-22T12:40:05;22.20;91.00
34279;DHT22;20538;51.528;9.942;2023-07-22T12:42:34;22.60;90.40
34279;DHT22;20538;51.528;9.942;2023-07-22T12:44:59;22.90;87.30
34279;DHT22;20538;51.528;9.942;2023-07-22T12:47:25;23.20;88.70
34279;DHT22;20538;51.528;9.942;2023-07-22T12:49:51;23.20;85.20
34279;DHT22;20538;51.528;9.942;2023-07-22T12:52:16;23.30;88.10
34279;DHT22;20538;51.528;9.942;2023-07-22T12:54:42;23.40;87.10
34279;DHT22;20538;51.528;9.942;2023-07-22T12:57:08;23.30;85.90
34279;DHT22;20538;51.528;9.942;2023-07-22T12:59:33;23.30;86.60
34279;DHT22;20538;51.528;9.942;2023-07-22T13:01:59;23.20;85.20
34279;DHT22;20538;51.528;9.942;2023-07-22T13:04:25;23.30;84.90
34279;DHT22;20538;51.528;9.942;2023-07-22T13:06:50;22.90;85.40
34279;DHT22;20538;51.528;9.942;2023-07-22T13:09:24;22.80;82.40
34279;DHT22;20538;51.528;9.942;2023-07-22T13:11:50;22.70;82.50
34279;DHT22;20538;51.528;9.942;2023-07-22T13:14:16;23.10;82.90
34279;DHT22;20538;51.528;9.942;2023-07-22T13:16:43;23.40;81.00
34279;DHT22;20538;51.528;9.942;2023-07-22T13:19:09;23.60;82.20
34279;DHT22;20538;51.528;9.942;2023-07-22T13:21:35;23.70;81.40
34279;DHT22;20538;51.528;9.942;2023-07-22T13:24:00;23.80;83.90
34279;DHT22;20538;51.528;9.942;2023-07-22T13:26:26;23.60;81.70
34279;DHT22;20538;51.528;9.942;2023-07-22T13:28:52;23.40;80.30
34279;DHT22;20538;51.528;9.942;2023-07-22T13:31:19;23.50;80.10
34279;DHT22;20538;51.528;9.942;2023-07-22T13:33:45;23.30;80.00
34279;DHT22;20538;51.528;9.942;2023-07-22T13:36:14;23.60;82.10
34279;DHT22;20538;51.528;9.942;2023-07-22T13:38:39;23.70;80.70
34279;DHT22;20538;51.528;9.942;2023-07-22T13:41:05;23.40;78.80
34279;DHT22;20538;51.528;9.942;2023-07-22T13:43:31;23.40;78.70
34279;DHT22;20538;51.528;9.942;2023-07-22T13:45:59;23.60;79.70
34279;DHT22;20538;51.528;9.942;2023-07-22T13:48:24;23.70;76.60
34279;DHT22;20538;51.528;9.942;2023-07-22T13:50:50;23.80;75.40
34279;DHT22;20538;51.528;9.942;2023-07-22T13:53:15;23.40;75.00
34279;DHT22;20538;51.528;9.942;2023-07-22T13:55:44;23.50;75.80
34279;DHT22;20538;51.528;9.942;2023-07-22T13:58:10;23.20;74.70
34279;DHT22;20538;51.528;9.942;2023-07-22T14:00:35;23.40;79.30
34279;DHT22;20538;51.528;9.942;2023-07-22T14:03:01;23.10;74.80
34279;DHT22;20538;51.528;9.942;2023-07-22T14:05:26;23.10;77.70
34279;DHT22;20538;51.528;9.942;2023-07-22T14:07:52;23.10;76.50
34279;DHT22;20538;51.528;9.942;2023-07-22T14:10:18;23.10;76.20
34279;DHT22;20538;51.528;9.942;2023-07-22T14:12:43;23.30;77.80
34279;DHT22;20538;51.528;9.942;2023-07-22T14:15:09;23.30;76.10
34279;DHT22;20538;51.528;9.942;2023-07-22T14:17:35;23.60;74.60
34279;DHT22;20538;51.528;9.942;2023-07-22T14:20:06;23.80;74.80
34279;DHT22;20538;51.528;9.942;2023-07-22T14:22:32;23.90;73.80
34279;DHT22;20538;51.528;9.942;2023-07-22T14:25:00;23.80;74.40
34279;DHT22;20538;51.528;9.942;2023-07-22T14:27:26;23.70;73.50
34279;DHT22;20538;51.528;9.942;2023-07-22T14:29:51;23.70;71.70
34279;DHT22;20538;51.528;9.942;2023-07-22T14:32:17;23.80;72.30
34279;DHT22;20538;51.528;9.942;2023-07-22T14:34:43;23.90;73.40
34279;DHT22;20538;51.528;9.942;2023-07-22T14:37:08;23.70;73.20
34279;DHT22;20538;51.528;9.942;2023-07-22T14:39:34;23.70;72.60
34279;DHT22;20538;51.528;9.942;2023-07-22T14:42:00;23.80;71.80
34279;DHT22;20538;51.528;9.942;2023-07-22T14:44:28;23.90;73.30
34279;DHT22;20538;51.528;9.942;2023-07-22T14:47:00;24.10;72.20
34279;DHT22;20538;51.528;9.942;2023-07-22T14:49:29;23.90;71.20
34279;DHT22;20538;51.528;9.942;2023-07-22T14:52:35;23.30;71.30
34279;DHT22;20538;51.528;9.942;2023-07-22T14:55:23;23.20;72.30
34279;DHT22;20538;51.528;9.942;2023-07-22T14:57:49;23.40;73.00
34279;DHT22;20538;51.528;9.942;2023-07-22T15:00:14;23.50;72.20
34279;DHT22;20538;51.528;9.942;2023-07-22T15:02:40;23.80;72.80
34279;DHT22;20538;51.528;9.942;2023-07-22T15:05:06;23.40;70.50
34279;DHT22;20538;51.528;9.942;2023-07-22T15:07:31;23.60;71.90
34279;DHT22;20538;51.528;9.942;2023-07-22T15:09:57;23.80;72.40
34279;DHT22;20538;51.528;9.942;2023-07-22T15:12:24;24.10;70.60
34279;DHT22;20538;51.528;9.942;2023-07-22T15:14:49;24.20;72.80
34279;DHT22;20538;51.528;9.942;2023-07-22T15:17:15;24.10;72.80
34279;DHT22;20538;51.528;9.942;2023-07-22T15:19:40;24.30;72.90
34279;DHT22;20538;51.528;9.942;2023-07-22T15:22:06;24.30;71.10
34279;DHT22;20538;51.528;9.942;2023-07-22T15:24:31;24.50;69.90
34279;DHT22;20538;51.528;9.942;2023-07-22T15:26:57;24.40;71.60
34279;DHT22;20538;51.528;9.942;2023-07-22T15:29:23;23.80;69.10
34279;DHT22;20538;51.528;9.942;2023-07-22T15:31:48;23.90;68.60
34279;DHT22;20538;51.528;9.942;2023-07-22T15:34:14;24.30;70.00
34279;DHT22;20538;51.528;9.942;2023-07-22T15:36:40;24.30;68.90
34279;DHT22;20538;51.528;9.942;2023-07-22T15:39:05;24.30;70.30
34279;DHT22;20538;51.528;9.942;2023-07-22T15:41:31;24.20;68.10
34279;DHT22;20538;51.528;9.942;2023-07-22T15:43:56;24.30;70.40
34279;DHT22;20538;51.528;9.942;2023-07-22T15:46:22;24.30;68.60
34279;DHT22;20538;51.528;9.942;2023-07-22T15:48:48;24.70;70.30
34279;DHT22;20538;51.528;9.942;2023-07-22T15:51:13;25.10;70.90
34279;DHT22;20538;51.528;9.942;2023-07-22T15:53:45;25.30;69.80
34279;DHT22;20538;51.528;9.942;2023-07-22T15:56:11;25.00;65.50